Time;durP1;ratioP1;P1;durP2;ratioP2;P2;SDS_P1;SDS_P2;PMS_P1;PMS_P2;Temp;Humidity;BMP_temperature;BMP_pressure;BME280_temperature;BME280_humidity;BME280_pressure;Samples;Min_cycle;Max_cycle;Signal;HPM_P1;HPM_P2
2020/12/26 00:01:58;;;;;;;6.90;5.22;;;;;;;1.13;80.42;101610.13;5032371;28;20025;-78
2020/12/26 00:04:36;;;;;;;;;;;;;;;;;;;;;
2020/12/26 00:07:06;;;;;;;4.97;4.55;;;;;;;1.18;80.81;101628.47;5061766;28;20092;-76
2020/12/26 00:09:35;;;;;;;7.53;3.60;;;;;;;1.26;80.97;101624.91;5054265;28;20078;-77
2020/12/26 00:12:00;;;;;;;11.43;4.70;;;;;;;1.28;81.09;101628.25;5062170;28;20143;-78
2020/12/26 00:14:29;;;;;;;6.63;4.38;;;;;;;1.30;81.03;101619.00;5031090;28;20037;-78
2020/12/26 00:17:05;;;;;;;13.48;5.85;;;;;;;1.40;81.60;101637.63;5060872;28;20082;-78
2020/12/26 00:19:31;;;;;;;10.23;5.10;;;;;;;1.39;81.17;101631.41;5054692;28;20033;-78
2020/12/26 00:21:56;;;;;;;8.38;5.03;;;;;;;1.48;81.40;101643.00;5028184;28;20021;-79
2020/12/26 00:24:22;;;;;;;9.90;5.18;;;;;;;1.43;81.12;101621.13;5031634;28;20132;-77
2020/12/26 00:26:47;;;;;;;10.98;5.05;;;;;;;1.40;81.26;101621.44;5082062;28;20028;-78
2020/12/26 00:29:15;;;;;;;4.75;4.30;;;;;;;1.38;81.85;101624.31;5065911;28;20028;-77
2020/12/26 00:31:40;;;;;;;9.27;4.40;;;;;;;1.34;81.18;101627.56;5078989;28;20026;-75
2020/12/26 00:34:06;;;;;;;6.47;4.72;;;;;;;1.32;81.57;101630.44;5083057;28;20036;-75
2020/12/26 00:36:31;;;;;;;5.57;4.57;;;;;;;1.24;82.02;101610.75;5065482;28;20044;-77
2020/12/26 00:38:57;;;;;;;5.22;3.80;;;;;;;1.17;82.42;101606.06;5062617;28;20032;-78
2020/12/26 00:41:22;;;;;;;4.72;4.30;;;;;;;1.24;81.67;101610.75;5079811;28;20033;-77
2020/12/26 00:43:48;;;;;;;14.73;4.18;;;;;;;1.16;82.49;101609.78;5058482;28;20151;-77
2020/12/26 00:46:13;;;;;;;7.03;3.88;;;;;;;1.14;82.21;101605.56;5078043;28;20088;-77
2020/12/26 00:48:41;;;;;;;7.93;4.10;;;;;;;1.11;82.15;101601.38;5084208;28;20051;-78
2020/12/26 00:51:10;;;;;;;5.32;4.00;;;;;;;1.20;82.17;101621.06;5055816;28;20024;-78
2020/12/26 00:53:35;;;;;;;3.35;2.97;;;;;;;1.21;82.52;101602.03;5065428;28;20029;-78
2020/12/26 00:56:01;;;;;;;4.45;4.10;;;;;;;1.21;81.73;101590.38;5072572;28;20039;-77
2020/12/26 00:58:26;;;;;;;4.15;3.75;;;;;;;1.15;81.12;101575.75;5054398;28;20454;-76
2020/12/26 01:00:52;;;;;;;3.60;3.30;;;;;;;1.14;81.10;101576.78;5078124;28;20028;-77
2020/12/26 01:03:17;;;;;;;7.05;4.20;;;;;;;1.08;80.47;101569.41;5082150;28;20071;-78
2020/12/26 01:05:50;;;;;;;8.07;3.47;;;;;;;1.04;80.94;101560.81;5084007;28;20016;-79
2020/12/26 01:08:15;;;;;;;8.65;3.88;;;;;;;1.11;80.87;101573.59;5044901;28;20039;-77
2020/12/26 01:10:43;;;;;;;4.05;3.53;;;;;;;1.16;80.59;101576.63;5064385;28;20029;-76
2020/12/26 01:13:09;;;;;;;10.18;3.72;;;;;;;1.08;80.86;101553.25;5058737;28;20059;-76
2020/12/26 01:15:47;;;;;;;;;;;;;;;;;;;;;
2020/12/26 01:18:15;;;;;;;7.47;2.63;;;;;;;1.31;81.72;101552.44;5079633;28;20112;-78
2020/12/26 01:20:43;;;;;;;4.38;2.72;;;;;;;1.43;81.37;101545.66;5056863;28;20031;-77
2020/12/26 01:23:08;;;;;;;2.30;2.10;;;;;;;1.64;80.93;101553.09;5062861;28;20048;-77
2020/12/26 01:25:34;;;;;;;3.03;2.83;;;;;;;1.70;81.55;101529.94;5078353;28;20041;-77
2020/12/26 01:28:01;;;;;;;2.65;2.45;;;;;;;1.76;80.49;101517.59;5064192;28;20036;-78
2020/12/26 01:30:27;;;;;;;3.20;2.90;;;;;;;1.67;80.63;101487.16;5063244;28;20038;-79
2020/12/26 01:32:53;;;;;;;10.45;2.90;;;;;;;1.87;81.05;101504.53;5078837;28;20032;-78
2020/12/26 01:35:19;;;;;;;5.85;3.47;;;;;;;1.89;80.26;101494.38;5081425;28;20020;-79
2020/12/26 01:37:44;;;;;;;13.57;3.80;;;;;;;1.88;80.42;101484.63;5063744;28;20535;-78
2020/12/26 01:40:13;;;;;;;11.30;3.70;;;;;;;1.87;79.60;101477.56;5052341;28;20050;-78
2020/12/26 01:42:51;;;;;;;6.90;2.95;;;;;;;1.86;80.30;101470.47;5059981;28;20796;-78
2020/12/26 01:45:37;;;;;;;5.13;2.35;;;;;;;1.85;80.35;101462.56;5091326;28;20055;-78
2020/12/26 01:48:13;;;;;;;2.90;1.98;;;;;;;1.88;81.05;101467.59;5084242;28;20017;-79
2020/12/26 01:50:40;;;;;;;4.13;2.03;;;;;;;1.92;81.31;101452.72;5082891;28;20012;-79
2020/12/26 01:53:15;;;;;;;;;;;;;;;;;;;;;
2020/12/26 01:55:41;;;;;;;1.60;1.50;;;;;;;1.93;80.36;101416.63;5080189;28;20080;-78
2020/12/26 01:58:23;;;;;;;;;;;;;;;;;;;;;
2020/12/26 02:00:49;;;;;;;2.53;2.28;;;;;;;1.83;80.18;101410.69;5082616;28;20103;-77
2020/12/26 02:03:14;;;;;;;4.35;2.38;;;;;;;1.89;79.81;101436.91;5078031;28;20068;-77
2020/12/26 02:05:43;;;;;;;3.55;2.58;;;;;;;1.73;80.70;101417.16;5068028;28;20020;-80
2020/12/26 02:08:08;;;;;;;6.18;2.47;;;;;;;1.77;80.33;101414.94;5062065;28;20043;-79
2020/12/26 02:10:36;;;;;;;3.33;2.20;;;;;;;1.65;81.11;101402.91;5054944;28;20021;-80
2020/12/26 02:13:02;;;;;;;3.58;2.40;;;;;;;1.60;79.99;101399.94;5073009;28;20036;-79
2020/12/26 02:18:19;;;;;;;2.25;2.03;;;;;;;1.69;80.34;101409.63;5087167;28;20036;-80
2020/12/26 02:20:44;;;;;;;3.45;2.08;;;;;;;1.63;81.63;101383.38;5066559;28;20032;-81
2020/12/26 02:23:11;;;;;;;5.35;1.67;;;;;;;1.62;81.88;101379.00;5087283;28;20056;-81
2020/12/26 02:25:38;;;;;;;2.17;1.70;;;;;;;1.66;81.54;101377.63;5067212;28;20109;-79
2020/12/26 02:28:04;;;;;;;3.05;1.92;;;;;;;1.69;81.18;101378.09;5053711;28;20060;-80
2020/12/26 02:30:32;;;;;;;2.85;1.70;;;;;;;1.66;81.56;101377.63;5055509;28;20032;-81
2020/12/26 02:32:57;;;;;;;5.93;2.05;;;;;;;1.60;81.26;101367.59;5091337;28;20037;-79
2020/12/26 02:35:22;;;;;;;1.50;1.40;;;;;;;1.72;81.36;101384.97;5071142;28;20031;-81
2020/12/26 02:37:48;;;;;;;1.70;1.42;;;;;;;1.63;81.82;101359.94;5082464;28;20124;-83
2020/12/26 02:40:13;;;;;;;6.97;1.65;;;;;;;1.62;81.48;101352.03;5074774;28;20140;-81
2020/12/26 02:42:39;;;;;;;7.18;2.00;;;;;;;1.78;81.50;101381.53;5076049;28;20037;-82
2020/12/26 02:45:07;;;;;;;3.08;1.48;;;;;;;1.74;82.16;101381.06;5067471;28;20031;-81
2020/12/26 02:47:35;;;;;;;2.90;1.25;;;;;;;1.76;80.91;101366.59;5073257;28;20028;-81
2020/12/26 02:50:02;;;;;;;5.68;1.60;;;;;;;1.71;81.57;101348.25;5074855;28;20028;-81
2020/12/26 02:52:28;;;;;;;2.13;1.10;;;;;;;1.57;81.30;101326.47;5065366;28;20107;-81
2020/12/26 02:54:55;;;;;;;4.10;1.30;;;;;;;1.65;81.23;101349.84;5059025;28;20060;-80
2020/12/26 02:57:21;;;;;;;3.10;1.15;;;;;;;1.76;81.08;101355.78;5082412;28;20036;-80
2020/12/26 02:59:49;;;;;;;1.45;0.90;;;;;;;1.80;81.56;101359.81;5041147;28;20028;-79
2020/12/26 03:02:14;;;;;;;3.63;1.10;;;;;;;1.70;81.21;101330.41;5062989;28;20025;-81
2020/12/26 03:04:40;;;;;;;7.22;1.67;;;;;;;1.74;81.34;101331.72;5062093;28;20028;-78
2020/12/26 03:07:08;;;;;;;2.88;1.13;;;;;;;1.73;81.97;101335.41;5063367;28;20028;-78
2020/12/26 03:09:39;;;;;;;1.67;1.58;;;;;;;1.88;81.51;101363.25;5065281;28;20038;-80
2020/12/26 03:12:04;;;;;;;3.35;1.60;;;;;;;1.83;81.35;101357.56;5064137;28;20020;-79
2020/12/26 03:14:32;;;;;;;7.30;1.58;;;;;;;1.81;80.69;101354.22;5067923;28;20043;-79
2020/12/26 03:17:06;;;;;;;2.63;1.33;;;;;;;1.64;81.22;101320.38;5082949;28;20024;-79
2020/12/26 03:19:49;;;;;;;5.80;1.40;;;;;;;1.88;80.89;101343.50;5060495;28;20028;-79
2020/12/26 03:22:19;;;;;;;1.95;1.27;;;;;;;1.72;81.47;101312.16;5073562;28;20020;-78
2020/12/26 03:24:44;;;;;;;3.67;1.73;;;;;;;1.76;81.07;101313.47;5060773;28;20045;-78
2020/12/26 03:27:10;;;;;;;2.72;1.30;;;;;;;2.00;81.80;101331.25;5064524;28;20074;-79
2020/12/26 03:29:35;;;;;;;4.78;0.93;;;;;;;2.06;81.92;101308.06;5058250;28;20036;-79
2020/12/26 03:32:01;;;;;;;0.90;0.75;;;;;;;2.21;81.83;101319.66;5046319;28;20025;-80
2020/12/26 03:34:26;;;;;;;4.22;1.08;;;;;;;2.26;81.25;101309.16;5058541;28;20037;-79
2020/12/26 03:36:52;;;;;;;0.70;0.70;;;;;;;2.39;80.82;101313.84;5082339;28;20039;-78
2020/12/26 03:39:17;;;;;;;0.70;0.70;;;;;;;2.52;81.03;101312.34;5062169;28;20112;-80
2020/12/26 03:41:43;;;;;;;0.82;0.60;;;;;;;2.62;80.92;101313.69;5047768;28;20032;-79
2020/12/26 03:44:12;;;;;;;0.70;0.60;;;;;;;2.73;81.00;101308.81;5048054;28;20379;-79
2020/12/26 03:46:37;;;;;;;6.65;0.60;;;;;;;2.69;80.72;101291.34;5080680;28;20044;-80
2020/12/26 03:49:03;;;;;;;5.88;0.75;;;;;;;2.93;80.83;101309.84;5078304;28;20032;-78
2020/12/26 03:51:28;;;;;;;1.10;0.60;;;;;;;2.90;80.66;101298.59;5045704;28;20033;-78
2020/12/26 03:53:54;;;;;;;0.85;0.77;;;;;;;2.99;80.82;101304.69;5066048;28;20036;-81
2020/12/26 03:56:19;;;;;;;2.63;0.65;;;;;;;3.05;80.33;101309.31;5049149;28;20085;-80
2020/12/26 03:58:50;;;;;;;0.70;0.40;;;;;;;3.12;80.97;101302.94;5066943;28;20034;-81
2020/12/26 04:01:15;;;;;;;0.57;0.50;;;;;;;3.19;80.94;101311.09;5075423;28;20096;-80
2020/12/26 04:03:44;;;;;;;1.90;0.73;;;;;;;3.26;80.44;101303.06;5058098;28;20477;-79
2020/12/26 04:06:09;;;;;;;1.17;0.85;;;;;;;3.19;80.06;101285.97;5065217;28;20036;-78
2020/12/26 04:08:35;;;;;;;0.93;0.88;;;;;;;3.22;79.88;101291.78;5044557;28;20031;-79
2020/12/26 04:11:00;;;;;;;0.65;0.65;;;;;;;3.14;80.09;101283.84;5072574;28;20040;-78
2020/12/26 04:13:25;;;;;;;1.27;0.82;;;;;;;3.05;79.83;101280.44;5068369;28;20131;-79
2020/12/26 04:15:51;;;;;;;4.43;0.60;;;;;;;3.04;80.34;101288.72;5047014;28;20402;-78
2020/12/26 04:18:16;;;;;;;2.28;0.82;;;;;;;2.89;80.84;101267.19;5069849;28;20047;-78
2020/12/26 04:20:42;;;;;;;2.08;0.98;;;;;;;2.85;80.62;101280.28;5060451;28;20028;-78
2020/12/26 04:23:07;;;;;;;1.73;1.33;;;;;;;2.80;80.63;101277.28;5089238;28;20024;-77
2020/12/26 04:25:33;;;;;;;6.53;1.48;;;;;;;2.72;81.15;101274.75;5082409;28;20043;-78
2020/12/26 04:27:58;;;;;;;4.85;1.05;;;;;;;2.59;81.04;101270.03;5065078;28;20049;-80
2020/12/26 04:30:28;;;;;;;0.80;0.80;;;;;;;2.33;81.46;101238.22;5054001;28;20039;-80
2020/12/26 04:32:56;;;;;;;5.65;2.00;;;;;;;2.54;82.14;101270.63;5071941;28;20036;-81
2020/12/26 04:35:21;;;;;;;1.20;1.10;;;;;;;2.54;81.46;101277.88;5087214;28;20028;-80
2020/12/26 04:37:48;;;;;;;0.60;0.50;;;;;;;2.43;81.74;101249.53;5073716;28;20008;-84
2020/12/26 04:40:19;;;;;;;1.90;0.88;;;;;;;2.30;81.81;101225.94;5072370;28;20020;-77
2020/12/26 04:42:48;;;;;;;2.70;0.68;;;;;;;2.37;81.99;101236.81;5064261;28;20012;-78
2020/12/26 04:45:13;;;;;;;1.40;0.52;;;;;;;2.43;82.84;101234.16;5062349;28;20078;-79
2020/12/26 04:47:55;;;;;;;0.47;0.40;;;;;;;2.39;81.81;101221.25;5063781;28;20025;-79
2020/12/26 04:50:32;;;;;;;2.20;0.68;;;;;;;2.38;82.06;101227.66;5057829;28;20047;-78
2020/12/26 04:53:03;;;;;;;0.85;0.50;;;;;;;2.35;82.51;101219.94;5054946;28;20538;-78
2020/12/26 04:55:34;;;;;;;0.57;0.28;;;;;;;2.37;82.21;101231.41;5074787;28;20029;-78
2020/12/26 04:58:11;;;;;;;0.30;0.30;;;;;;;2.29;82.69;101218.84;5083234;28;20437;-77
2020/12/26 05:00:38;;;;;;;4.53;1.00;;;;;;;2.33;82.43;101216.63;5060270;28;20082;-78
2020/12/26 05:03:11;;;;;;;0.32;0.30;;;;;;;2.39;82.76;101223.94;5047165;28;20024;-78
2020/12/26 05:05:41;;;;;;;0.32;0.20;;;;;;;2.47;81.75;101234.63;5053725;28;20056;-78
2020/12/26 05:08:09;;;;;;;2.13;0.30;;;;;;;2.52;82.42;101232.16;5065580;28;20020;-77
2020/12/26 05:10:35;;;;;;;0.30;0.20;;;;;;;2.50;82.69;101223.44;5058318;28;20039;-77
2020/12/26 05:13:04;;;;;;;0.40;0.30;;;;;;;2.69;83.00;101226.53;5072888;28;20033;-78
2020/12/26 05:15:30;;;;;;;0.30;0.13;;;;;;;2.76;82.50;101209.34;5058662;28;20021;-78
2020/12/26 05:17:55;;;;;;;0.38;0.17;;;;;;;3.02;81.60;101223.25;5065853;28;20044;-77
2020/12/26 05:20:22;;;;;;;0.85;0.50;;;;;;;3.16;81.60;101226.88;5067946;28;20036;-77
2020/12/26 05:22:48;;;;;;;0.40;0.40;;;;;;;3.16;81.99;101206.09;5083885;28;20463;-77
2020/12/26 05:25:14;;;;;;;0.32;0.30;;;;;;;3.36;81.75;101210.78;5085218;28;20036;-78
2020/12/26 05:27:40;;;;;;;3.83;1.13;;;;;;;3.48;82.42;101214.59;5045602;28;20029;-77
2020/12/26 05:30:06;;;;;;;6.75;0.65;;;;;;;3.54;81.59;101208.38;5067585;28;20036;-77
2020/12/26 05:32:32;;;;;;;2.75;0.82;;;;;;;3.59;81.97;101202.38;5060209;28;20024;-79
2020/12/26 05:35:08;;;;;;;2.58;0.50;;;;;;;3.67;82.21;101202.22;5063503;28;20029;-77
2020/12/26 05:37:35;;;;;;;0.45;0.45;;;;;;;3.73;82.48;101189.75;5064683;28;20020;-78
2020/12/26 05:40:02;;;;;;;0.35;0.32;;;;;;;3.79;82.41;101189.78;5050191;28;20475;-78
2020/12/26 05:42:28;;;;;;;0.60;0.30;;;;;;;3.83;81.82;101187.50;5083003;28;20076;-78
2020/12/26 05:45:05;;;;;;;1.95;0.55;;;;;;;3.81;81.21;101176.03;5050362;28;20056;-77
2020/12/26 05:47:30;;;;;;;0.68;0.35;;;;;;;3.76;80.92;101171.25;5078663;28;20035;-77
2020/12/26 05:49:56;;;;;;;1.48;0.45;;;;;;;3.75;81.42;101174.16;5061594;28;20021;-78
2020/12/26 05:52:24;;;;;;;0.45;0.30;;;;;;;3.76;81.44;101165.00;5081887;28;20013;-78
2020/12/26 05:54:51;;;;;;;1.00;0.35;;;;;;;3.78;81.00;101155.66;5085454;28;20056;-77
2020/12/26 05:57:18;;;;;;;0.68;0.35;;;;;;;3.86;80.84;101153.81;5066435;28;20035;-78
2020/12/26 05:59:56;;;;;;;1.20;0.22;;;;;;;3.92;81.09;101142.97;5085479;28;20059;-77
2020/12/26 06:02:25;;;;;;;1.00;0.22;;;;;;;4.02;80.78;101148.84;5076917;28;20055;-77
2020/12/26 06:05:01;;;;;;;0.22;0.22;;;;;;;4.09;81.77;101129.91;5067343;28;20035;-78
2020/12/26 06:07:30;;;;;;;1.10;0.30;;;;;;;4.26;82.11;101130.34;5075720;28;20055;-76
2020/12/26 06:10:01;;;;;;;0.98;0.20;;;;;;;4.35;82.16;101134.53;5079731;28;20032;-77
2020/12/26 06:12:30;;;;;;;1.17;1.00;;;;;;;4.44;83.49;101120.75;5067226;28;20027;-77
2020/12/26 06:14:57;;;;;;;0.77;0.30;;;;;;;4.67;83.63;101126.63;5060072;28;20044;-74
2020/12/26 06:17:25;;;;;;;1.50;0.30;;;;;;;4.77;83.28;101117.22;5085368;28;20020;-77
2020/12/26 06:19:56;;;;;;;0.43;0.10;;;;;;;4.91;83.69;101108.03;5059575;28;20025;-75
2020/12/26 06:22:22;;;;;;;0.70;0.30;;;;;;;4.94;83.26;101088.63;5076253;28;20055;-76
2020/12/26 06:24:49;;;;;;;0.77;0.35;;;;;;;5.12;82.79;101117.75;5081230;28;20045;-76
2020/12/26 06:27:15;;;;;;;3.50;0.10;;;;;;;5.20;82.24;101119.44;5079943;28;20024;-75
2020/12/26 06:29:43;;;;;;;0.40;0.20;;;;;;;5.24;82.49;101104.38;5047666;28;20051;-76
2020/12/26 06:32:10;;;;;;;7.97;0.35;;;;;;;5.27;82.20;101103.97;5076961;28;20012;-77
2020/12/26 06:34:40;;;;;;;0.50;0.25;;;;;;;5.35;82.69;101095.56;5071814;28;20033;-76
2020/12/26 06:37:06;;;;;;;0.40;0.10;;;;;;;5.40;82.65;101092.22;5078978;28;20044;-76
2020/12/26 06:39:34;;;;;;;0.82;0.20;;;;;;;5.47;82.68;101084.06;5044385;28;20090;-76
2020/12/26 06:42:17;;;;;;;4.57;0.08;;;;;;;5.56;82.76;101090.88;5083458;28;20067;-77
2020/12/26 06:44:46;;;;;;;0.57;0.10;;;;;;;5.61;82.20;101088.38;5082420;28;20103;-78
2020/12/26 06:47:37;;;;;;;0.20;0.13;;;;;;;5.62;82.55;101090.00;5083070;28;20058;-77
2020/12/26 06:50:29;;;;;;;0.20;0.10;;;;;;;5.67;82.52;101070.38;5080444;28;20486;-78
2020/12/26 06:52:55;;;;;;;0.22;0.08;;;;;;;5.62;82.82;101070.19;5078073;28;20124;-78
2020/12/26 06:55:40;;;;;;;4.60;0.20;;;;;;;5.71;82.57;101061.59;5058666;28;20127;-77
2020/12/26 06:58:25;;;;;;;0.77;0.20;;;;;;;5.76;82.63;101069.91;5068143;28;20032;-76
2020/12/26 07:00:51;;;;;;;0.15;0.10;;;;;;;5.83;82.54;101074.47;5074812;28;20016;-78
2020/12/26 07:03:24;;;;;;;0.15;0.10;;;;;;;5.86;82.89;101057.75;5089200;28;20020;-78
2020/12/26 07:05:51;;;;;;;0.30;0.00;;;;;;;5.88;82.11;101050.19;5068010;28;20149;-78
2020/12/26 07:08:31;;;;;;;1.08;0.20;;;;;;;5.91;82.68;101033.47;5051785;28;20028;-78
2020/12/26 07:11:22;;;;;;;3.10;0.32;;;;;;;5.94;81.88;101038.47;5077401;28;20035;-78
2020/12/26 07:13:50;;;;;;;3.15;0.35;;;;;;;5.85;82.34;101028.94;5082193;28;20033;-78
2020/12/26 07:16:38;;;;;;;0.30;0.10;;;;;;;5.90;82.09;101037.25;5064030;28;20254;-75
2020/12/26 07:19:23;;;;;;;0.47;0.10;;;;;;;5.91;82.03;101031.63;5081207;28;20016;-76
2020/12/26 07:21:50;;;;;;;0.10;0.10;;;;;;;5.82;82.37;101019.34;5060964;28;20028;-77
2020/12/26 07:24:17;;;;;;;4.22;0.20;;;;;;;5.84;82.82;101029.97;5066525;28;20024;-77
2020/12/26 07:26:43;;;;;;;0.10;0.10;;;;;;;5.80;82.34;101029.59;5078223;28;20411;-77
2020/12/26 07:29:22;;;;;;;2.92;0.15;;;;;;;5.77;82.97;101017.28;5082512;28;20071;-77
2020/12/26 07:31:48;;;;;;;1.30;0.20;;;;;;;5.84;83.27;101019.13;5081360;28;20051;-77
2020/12/26 07:34:36;;;;;;;0.20;0.15;;;;;;;5.89;82.52;101003.00;5058222;28;20389;-77
2020/12/26 07:37:02;;;;;;;0.43;0.25;;;;;;;5.80;83.67;100990.75;5057088;28;20043;-77
2020/12/26 07:39:28;;;;;;;0.43;0.08;;;;;;;5.81;83.29;101006.00;5083081;28;20079;-78
2020/12/26 07:41:55;;;;;;;0.75;0.20;;;;;;;5.79;83.35;101002.69;5044497;28;20024;-77
2020/12/26 07:44:25;;;;;;;1.08;0.20;;;;;;;5.78;84.16;101001.81;5045316;28;20516;-78
2020/12/26 07:46:56;;;;;;;0.47;0.40;;;;;;;5.86;84.72;100998.03;5080210;28;20055;-77
2020/12/26 07:49:22;;;;;;;1.67;0.52;;;;;;;5.99;84.46;100992.53;5079364;28;20032;-79
2020/12/26 07:52:08;;;;;;;0.52;0.10;;;;;;;6.08;84.14;100991.19;5076883;28;20053;-77
2020/12/26 07:54:34;;;;;;;0.20;0.13;;;;;;;6.08;84.05;100985.75;5064255;28;20088;-77
2020/12/26 07:57:00;;;;;;;3.85;0.20;;;;;;;6.23;83.52;100987.28;5080167;28;20066;-76
2020/12/26 07:59:26;;;;;;;0.20;0.10;;;;;;;6.34;83.48;100994.72;5082662;28;20025;-75
2020/12/26 08:01:53;;;;;;;0.32;0.20;;;;;;;6.37;83.30;100990.72;5082474;28;20083;-77
2020/12/26 08:04:19;;;;;;;0.30;0.10;;;;;;;6.47;82.58;100999.19;5075782;28;20032;-78
2020/12/26 08:06:46;;;;;;;0.13;0.13;;;;;;;6.50;82.34;100992.47;5079878;28;20079;-76
2020/12/26 08:09:13;;;;;;;0.73;0.40;;;;;;;6.44;82.45;100984.16;5079752;28;20028;-78
2020/12/26 08:11:38;;;;;;;0.63;0.20;;;;;;;6.39;82.33;100964.16;5063866;28;20115;-77
2020/12/26 08:14:04;;;;;;;2.17;0.25;;;;;;;6.39;82.47;100964.97;5050721;28;20037;-76
2020/12/26 08:16:30;;;;;;;0.85;0.20;;;;;;;6.38;82.31;100963.34;5058246;28;20033;-77
2020/12/26 08:18:56;;;;;;;3.90;0.32;;;;;;;6.37;82.28;100977.97;5058900;28;20028;-78
2020/12/26 08:21:22;;;;;;;1.17;0.20;;;;;;;6.41;82.65;100984.63;5082033;28;20027;-79
2020/12/26 08:24:03;;;;;;;2.10;0.30;;;;;;;6.46;82.64;100979.31;5060216;28;20039;-79
2020/12/26 08:26:32;;;;;;;1.95;0.30;;;;;;;6.37;82.31;100971.72;5080301;28;20036;-77
2020/12/26 08:29:05;;;;;;;0.47;0.20;;;;;;;6.43;83.01;100979.78;5061752;28;20089;-76
2020/12/26 08:31:32;;;;;;;2.22;0.77;;;;;;;6.39;82.76;100959.53;5082165;28;20017;-78
2020/12/26 08:34:09;;;;;;;3.85;0.50;;;;;;;6.46;82.82;100964.91;5079769;28;20051;-78
2020/12/26 08:36:43;;;;;;;2.13;0.38;;;;;;;6.39;83.23;100953.28;5061548;28;20025;-78
2020/12/26 08:39:20;;;;;;;0.52;0.30;;;;;;;6.58;82.60;100984.03;5077991;28;20025;-78
2020/12/26 08:41:48;;;;;;;0.20;0.20;;;;;;;6.59;83.17;100972.09;5078830;28;20076;-78
2020/12/26 08:44:18;;;;;;;0.20;0.20;;;;;;;6.66;82.83;100974.72;5078667;28;20032;-78
2020/12/26 08:46:48;;;;;;;0.30;0.30;;;;;;;6.73;83.40;100978.19;5076166;28;20022;-75
2020/12/26 08:49:14;;;;;;;0.50;0.30;;;;;;;6.73;82.85;100960.03;5078439;28;20098;-74
2020/12/26 08:51:44;;;;;;;0.38;0.20;;;;;;;6.88;83.12;100977.81;5080715;28;20021;-74
2020/12/26 08:54:21;;;;;;;1.15;0.20;;;;;;;6.91;82.81;100963.78;5080051;28;20024;-75
2020/12/26 08:56:47;;;;;;;2.13;0.75;;;;;;;6.95;82.35;100960.38;5075960;28;20039;-75
2020/12/26 08:59:13;;;;;;;0.47;0.28;;;;;;;6.94;82.41;100957.88;5060425;28;20308;-76
2020/12/26 09:01:39;;;;;;;1.67;0.30;;;;;;;7.01;81.75;100955.91;5078916;28;20032;-75
2020/12/26 09:04:15;;;;;;;1.73;0.20;;;;;;;7.00;81.96;100948.81;5080514;28;20052;-76
2020/12/26 09:06:42;;;;;;;3.55;0.28;;;;;;;7.03;81.98;100942.09;5079036;28;20052;-77
2020/12/26 09:09:22;;;;;;;0.88;0.20;;;;;;;7.12;82.22;100946.97;5054915;28;20032;-80
2020/12/26 09:12:00;;;;;;;0.25;0.17;;;;;;;7.18;81.94;100928.88;5069563;28;20028;-76
2020/12/26 09:14:26;;;;;;;0.90;0.20;;;;;;;7.26;82.51;100941.34;5079686;28;20020;-78
2020/12/26 09:16:59;;;;;;;0.20;0.13;;;;;;;7.32;82.35;100913.22;5054115;28;20045;-76
2020/12/26 09:19:40;;;;;;;4.03;0.30;;;;;;;7.54;82.81;100931.72;5079006;28;20028;-76
2020/12/26 09:22:10;;;;;;;0.47;0.40;;;;;;;7.61;82.18;100930.56;5079512;28;20024;-78
2020/12/26 09:24:36;;;;;;;0.30;0.10;;;;;;;7.58;82.38;100911.13;5072800;28;20024;-76
2020/12/26 09:27:01;;;;;;;0.30;0.20;;;;;;;7.71;81.96;100910.94;5052592;28;20107;-77
2020/12/26 09:29:30;;;;;;;0.10;0.10;;;;;;;7.65;81.87;100887.34;5083205;28;20123;-82
2020/12/26 09:31:56;;;;;;;0.15;0.10;;;;;;;7.72;81.14;100896.22;5072739;28;20028;-83
2020/12/26 09:34:28;;;;;;;1.25;0.20;;;;;;;7.78;81.26;100895.31;5078454;28;20059;-83
2020/12/26 09:37:07;;;;;;;1.35;0.20;;;;;;;7.94;80.77;100903.81;5048124;28;20467;-78
2020/12/26 09:39:33;;;;;;;0.20;0.20;;;;;;;7.97;80.76;100903.34;5055267;28;20032;-78
2020/12/26 09:41:58;;;;;;;0.75;0.20;;;;;;;8.12;81.26;100895.53;5062002;28;20776;-79
2020/12/26 09:44:24;;;;;;;2.53;0.20;;;;;;;8.49;80.66;100889.81;5081487;28;20028;-80
2020/12/26 09:47:06;;;;;;;2.75;0.30;;;;;;;9.09;77.96;100898.63;5066796;28;20032;-79
2020/12/26 09:49:31;;;;;;;0.22;0.22;;;;;;;9.50;77.09;100893.88;5066719;28;20033;-80
2020/12/26 09:51:57;;;;;;;0.20;0.20;;;;;;;10.08;75.93;100899.16;5065644;28;20036;-82
2020/12/26 09:54:22;;;;;;;0.30;0.10;;;;;;;10.57;72.82;100882.91;5065997;28;20032;-81
2020/12/26 09:56:48;;;;;;;0.38;0.20;;;;;;;11.05;70.76;100877.66;5057677;28;20050;-78
2020/12/26 09:59:13;;;;;;;2.95;0.30;;;;;;;11.45;69.46;100870.13;5081337;28;20098;-79
2020/12/26 10:01:46;;;;;;;2.40;0.25;;;;;;;11.27;68.49;100866.69;5078490;28;20086;-73
2020/12/26 10:04:14;;;;;;;2.35;0.20;;;;;;;11.03;69.37;100870.81;5078951;28;20064;-78
2020/12/26 10:06:42;;;;;;;0.17;0.00;;;;;;;10.98;70.82;100869.69;5051064;28;20043;-77
2020/12/26 10:09:11;;;;;;;0.05;0.00;;;;;;;11.87;69.64;100864.69;5077579;28;20029;-79
2020/12/26 10:11:36;;;;;;;0.30;0.10;;;;;;;12.71;67.07;100850.28;5089267;28;20052;-76
2020/12/26 10:14:02;;;;;;;0.10;0.03;;;;;;;13.13;65.24;100841.03;5054334;28;20033;-76
2020/12/26 10:16:27;;;;;;;0.08;0.08;;;;;;;13.49;62.88;100837.50;5084410;28;20032;-78
2020/12/26 10:18:53;;;;;;;0.20;0.10;;;;;;;13.27;62.11;100836.66;5068531;28;20029;-78
2020/12/26 10:21:18;;;;;;;0.20;0.00;;;;;;;13.12;62.34;100820.16;5082830;28;20052;-77
2020/12/26 10:23:49;;;;;;;0.10;0.00;;;;;;;13.16;62.12;100824.03;5061765;28;20032;-79
2020/12/26 10:26:19;;;;;;;0.00;0.00;;;;;;;13.23;62.95;100845.72;5085884;28;20052;-78
2020/12/26 10:28:49;;;;;;;0.90;0.08;;;;;;;13.24;62.96;100819.91;5059307;28;20047;-77
2020/12/26 10:31:15;;;;;;;0.32;0.03;;;;;;;13.25;62.32;100829.78;5067717;28;20029;-76
2020/12/26 10:33:42;;;;;;;0.30;0.10;;;;;;;12.98;61.97;100819.91;5085533;28;20050;-78
2020/12/26 10:36:10;;;;;;;0.05;0.00;;;;;;;12.80;63.30;100809.44;5066778;28;20150;-77
2020/12/26 10:38:35;;;;;;;0.47;0.03;;;;;;;12.77;63.94;100804.47;5068538;28;20512;-77
2020/12/26 10:41:04;;;;;;;0.00;0.00;;;;;;;12.87;63.46;100801.75;5075412;28;20119;-77
2020/12/26 10:43:33;;;;;;;0.30;0.10;;;;;;;12.84;63.13;100788.59;5086996;28;20020;-80
2020/12/26 10:45:59;;;;;;;0.03;0.00;;;;;;;12.97;62.63;100793.53;5088002;28;20044;-79
2020/12/26 10:48:28;;;;;;;0.15;0.10;;;;;;;12.88;63.40;100785.00;5057025;28;20462;-79
2020/12/26 10:50:54;;;;;;;0.10;0.05;;;;;;;13.02;63.23;100776.25;5064567;28;20029;-79
2020/12/26 10:53:20;;;;;;;0.40;0.10;;;;;;;12.87;62.52;100760.59;5085035;28;20028;-76
2020/12/26 10:55:46;;;;;;;0.20;0.00;;;;;;;12.79;63.23;100741.91;5062455;28;20025;-77
2020/12/26 10:58:12;;;;;;;0.00;0.00;;;;;;;12.83;63.89;100730.09;5064887;28;20040;-80
2020/12/26 11:00:37;;;;;;;0.15;0.03;;;;;;;12.86;63.40;100726.00;5067541;28;20043;-80
2020/12/26 11:03:02;;;;;;;0.00;0.00;;;;;;;12.69;63.20;100716.13;5080950;28;20021;-79
2020/12/26 11:05:28;;;;;;;0.30;0.05;;;;;;;12.50;64.29;100715.81;5073414;28;20463;-79
2020/12/26 11:07:53;;;;;;;1.48;0.00;;;;;;;12.08;65.36;100707.78;5064896;28;20032;-79
2020/12/26 11:10:19;;;;;;;0.00;0.00;;;;;;;11.87;66.26;100721.34;5084390;28;20088;-78
2020/12/26 11:12:54;;;;;;;0.00;0.00;;;;;;;11.82;66.95;100721.34;5085525;28;20043;-79
2020/12/26 11:15:22;;;;;;;0.60;0.32;;;;;;;11.69;66.87;100687.84;5070689;28;20033;-78
2020/12/26 11:17:50;;;;;;;0.13;0.00;;;;;;;11.64;67.13;100668.66;5057182;28;20035;-80
2020/12/26 11:20:17;;;;;;;0.00;0.00;;;;;;;11.51;67.58;100675.44;5068458;28;20044;-76
2020/12/26 11:22:42;;;;;;;0.20;0.10;;;;;;;11.31;68.25;100684.34;5078894;28;20060;-77
2020/12/26 11:25:10;;;;;;;0.17;0.10;;;;;;;11.14;69.06;100686.44;5060729;28;20032;-77
2020/12/26 11:27:35;;;;;;;0.15;0.03;;;;;;;11.12;69.38;100683.97;5069353;28;20052;-78
2020/12/26 11:30:01;;;;;;;0.10;0.05;;;;;;;11.06;70.28;100686.94;5063809;28;20032;-78
2020/12/26 11:32:29;;;;;;;0.10;0.10;;;;;;;11.04;70.07;100665.31;5067036;28;20043;-78
2020/12/26 11:34:55;;;;;;;0.85;0.03;;;;;;;11.01;70.03;100663.09;5070494;28;20029;-78
2020/12/26 11:37:20;;;;;;;0.47;0.10;;;;;;;10.93;70.53;100658.09;5066274;28;20013;-78
2020/12/26 11:39:46;;;;;;;0.03;0.00;;;;;;;10.96;70.59;100650.19;5072623;28;20025;-78
2020/12/26 11:42:13;;;;;;;0.22;0.00;;;;;;;10.98;70.62;100639.81;5072504;28;20027;-78
2020/12/26 11:44:48;;;;;;;0.20;0.08;;;;;;;10.97;70.81;100626.41;5082592;28;20024;-79
2020/12/26 11:47:19;;;;;;;0.30;0.10;;;;;;;11.03;71.06;100621.78;5059952;28;20028;-79